Аэропорт: Днепропетровск. Днепропетровск

ICAO: UKDD

METAR:
2021-10-23 01:00:00
UKDD 230100Z 17002MPS 140V200 CAVOK 09/06 Q1013 R26/090070 NOSIG
METAR:
2021-10-22 23:05:00
TAF UKDD 222305Z 2300/2324 21004MPS 3100 BR BKN007 TEMPO 2301/2306 1100 BR BKN003 TEMPO 2306/2318 25006G11MPS 2100 -SHRA BR BKN007 BKN015CB BECMG 2318/2320 31005MPS